Flight Track Log - Related Links

Times and Time Zones

All times are in EDT time to prevent confusion due to time zone crossing. See the SWA1096 flight status page for this flight to view local times or setup timezone preferences in your user account.

Time Position Orientation Groundspeed Altitude Reporting Facility
EDT Latitude Longitude Course Direction KTS MPH feet Rate Location/Type
Fri 09:08:03 AM 36.0750 -115.1633 272° West 161 185 2,900  Level Los Angeles Center
Fri 09:09:16 AM 36.0772 -115.2531 272° West 231 266 6,400 2,878 Climbing Los Angeles Center
Fri 09:09:41 AM 36.0825 -115.2719 289° West 217 250 7,600 3,836 Climbing Los Angeles Center
Fri 09:10:17 AM 36.1272 -115.2950 337° Northwest 242 278 10,300 3,738 Climbing Los Angeles Center
Fri 09:10:42 AM 36.1464 -115.2917 North 249 287 11,400 2,753 Climbing Los Angeles Center
Fri 09:11:42 AM 36.1872 -115.2144 57° Northeast 275 316 14,200 2,479 Climbing Los Angeles Center
Fri 09:12:43 AM 36.1969 -115.0931 84° East 356 410 16,400 2,803 Climbing Los Angeles Center
Fri 09:13:44 AM 36.1981 -114.9364 89° East 379 436 19,900 3,074 Climbing Los Angeles Center
Fri 09:14:44 AM 36.2031 -114.7986 87° East 398 458 22,600 2,579 Climbing Los Angeles Center
Fri 09:15:45 AM 36.2831 -114.7022 44° Northeast 403 464 25,100 2,361 Climbing Los Angeles Center
Fri 09:16:46 AM 36.3725 -114.6172 37° Northeast 406 467 27,400 2,213 Climbing Los Angeles Center
Fri 09:17:47 AM 36.4658 -114.5294 37° Northeast 417 480 29,600 2,164 Climbing Los Angeles Center
Fri 09:18:48 AM 36.5603 -114.4419 37° Northeast 423 487 31,800 1,672 Climbing Los Angeles Center
Fri 09:19:49 AM 36.6594 -114.3658 32° Northeast 420 483 33,000 590 Climbing Los Angeles Center
Fri 09:20:50 AM 36.7578 -114.2908 31° Northeast 416 479 33,000  Level Los Angeles Center
Fri 09:21:50 AM 36.8553 -114.2144 32° Northeast 414 476 33,000  Level Los Angeles Center
Fri 09:22:51 AM 36.9531 -114.1386 32° Northeast 414 476 33,000  Level Los Angeles Center
Fri 09:23:52 AM 37.0494 -114.0617 32° Northeast 411 473 33,000  Level Los Angeles Center
Fri 09:24:53 AM 37.1461 -113.9858 32° Northeast 411 473 33,000  Level Los Angeles Center
Fri 09:25:47 AM 37.2506 -113.9061 31° Northeast 412 474 33,000  Level Salt Lake Center
Fri 09:26:48 AM 37.3467 -113.8292 32° Northeast 410 472 33,000  Level Salt Lake Center
Fri 09:27:49 AM 37.4450 -113.7514 32° Northeast 414 476 33,000  Level Salt Lake Center
Fri 09:28:50 AM 37.5428 -113.6744 32° Northeast 414 476 33,000  Level Salt Lake Center
Fri 09:29:51 AM 37.6400 -113.5964 32° Northeast 413 475 33,000  Level Salt Lake Center
Fri 09:30:53 AM 37.7372 -113.5194 32° Northeast 412 474 33,000  Level Salt Lake Center
Fri 09:31:54 AM 37.8400 -113.4608 24° Northeast 408 470 33,000  Level Salt Lake Center
Fri 09:32:55 AM 37.9425 -113.4044 23° Northeast 401 461 33,000  Level Salt Lake Center
Fri 09:33:56 AM 38.0458 -113.3494 23° Northeast 401 461 33,000  Level Salt Lake Center
Fri 09:34:57 AM 38.1503 -113.2944 22° Northeast 403 464 33,000  Level Salt Lake Center
Fri 09:35:58 AM 38.2542 -113.2400 22° Northeast 403 464 33,000  Level Salt Lake Center
Fri 09:36:59 AM 38.3586 -113.1842 23° Northeast 405 466 33,000  Level Salt Lake Center
Fri 09:38:00 AM 38.4622 -113.1272 23° Northeast 406 467 33,000 -295 Level Salt Lake Center
Fri 09:39:01 AM 38.5656 -113.0708 23° Northeast 404 465 32,400 -492 Descending Salt Lake Center
Fri 09:40:02 AM 38.6689 -113.0147 23° Northeast 404 465 32,000 -195 Descending Salt Lake Center
Fri 09:41:04 AM 38.7928 -112.9478 23° Northeast 403 464 32,000  Level Salt Lake Center
Fri 09:42:05 AM 38.8964 -112.8925 23° Northeast 403 464 32,000  Level Salt Lake Center
Fri 09:43:06 AM 39.0003 -112.8358 23° Northeast 405 466 32,000  Level Salt Lake Center
Fri 09:44:07 AM 39.1036 -112.7786 23° Northeast 404 465 32,000  Level Salt Lake Center
Fri 09:45:08 AM 39.2078 -112.7233 22° Northeast 405 466 32,000  Level Salt Lake Center
Fri 09:46:09 AM 39.3111 -112.6650 24° Northeast 406 467 32,000 -683 Level Salt Lake Center
Fri 09:47:11 AM 39.4281 -112.6019 23° Northeast 406 467 30,600 -1,805 Descending Salt Lake Center
Fri 09:48:12 AM 39.5294 -112.5444 24° Northeast 401 461 28,300 -2,213 Descending Salt Lake Center
Fri 09:49:13 AM 39.6272 -112.4906 23° Northeast 386 444 26,100 -2,066 Descending Salt Lake Center
Fri 09:50:14 AM 39.7222 -112.4394 22° Northeast 373 429 24,100 -1,951 Descending Salt Lake Center
Fri 09:51:16 AM 39.8139 -112.3872 24° Northeast 364 419 22,100 -2,057 Descending Salt Lake Center
Fri 09:51:59 AM 39.8886 -112.3572 17° North 358 412 20,500 -1,967 Descending Salt Lake Center
Fri 09:52:17 AM 39.9047 -112.3367 44° Northeast 357 411 20,100 -2,000 Descending Salt Lake Center
Fri 09:52:35 AM 39.9444 -112.3247 13° North 355 409 19,300 -1,869 Descending Salt Lake Center
Fri 09:53:18 AM 39.9928 -112.2867 31° Northeast 345 397 18,200 -1,881 Descending Salt Lake Center
Fri 09:53:42 AM 40.0375 -112.2714 15° North 339 390 17,200 -1,279 Descending Salt Lake Center
Fri 09:54:19 AM 40.0803 -112.2439 26° Northeast 337 388 16,900 -200 Descending Salt Lake Center
Fri 09:54:42 AM 40.1258 -112.2394 North 340 391 17,000 -97 Climbing Salt Lake Center
Fri 09:55:21 AM 40.1717 -112.2139 23° Northeast 338 389 16,800 -1,180 Descending Salt Lake Center
Fri 09:55:43 AM 40.2181 -112.2058 North 332 382 15,800 -2,361 Descending Salt Lake Center
Fri 09:56:22 AM 40.2767 -112.1792 19° North 324 373 14,400 -1,770 Descending Salt Lake Center
Fri 09:56:44 AM 40.3069 -112.1761 North 324 373 14,000 -393 Descending Salt Lake Center
Fri 09:57:23 AM 40.3644 -112.1492 20° North 326 375 14,000  Level Salt Lake Center
Fri 09:57:44 AM 40.3975 -112.1431 North 329 379 14,000 -484 Level Salt Lake Center
Fri 09:58:25 AM 40.4536 -112.1186 18° North 330 380 13,500 -984 Descending Salt Lake Center
Fri 09:58:45 AM 40.4861 -112.1131 North 329 379 13,000 -1,279 Descending Salt Lake Center
Fri 09:59:26 AM 40.5408 -112.0886 19° North 325 374 12,200 -985 Descending Salt Lake Center
Fri 09:59:52 AM 40.5822 -112.0864 North 320 368 11,900 -1,082 Descending Salt Lake Center
Fri 10:00:27 AM 40.6269 -112.0786 North 311 358 11,100 -900 Descending Salt Lake Center
Fri 10:00:52 AM 40.6722 -112.0844 354° North 324 373 11,000 -194 Descending Salt Lake Center
Fri 10:01:29 AM 40.7175 -112.0869 358° North 325 374 10,900  Descending Salt Lake Center
Fri 10:01:53 AM 40.7556 -112.0931 353° North 304 350 11,000  Climbing Salt Lake Center
Fri 10:02:30 AM 40.7964 -112.0964 356° North 279 321 10,900 -545 Descending Salt Lake Center
Fri 10:02:59 AM 40.8375 -112.1047 351° North 253 291 10,400 -871 Descending Salt Lake Center
Fri 10:03:32 AM 40.8653 -112.1047 360° North 249 287 10,000 -982 Descending Salt Lake Center
Fri 10:03:54 AM 40.8989 -112.1097 354° North 248 285 9,500 -1,377 Descending Salt Lake Center
Fri 10:04:33 AM 40.9319 -112.1122 357° North 240 276 8,600 -1,612 Descending Salt Lake Center
Fri 10:05:01 AM 40.9631 -112.0964 21° North 218 251 7,700 -1,279 Descending Salt Lake Center
Fri 10:05:34 AM 40.9628 -112.0692 91° East 205 236 7,300 -1,300 Descending Salt Lake Center
Fri 10:06:01 AM 40.9408 -112.0386 134° Southeast 192 221 6,400 -1,258 Descending Salt Lake Center
Fri 10:06:36 AM 40.9142 -112.0211 154° Southeast 183 211 6,000 -436 Descending Salt Lake Center
Fri 10:06:56 AM 40.8972 -112.0136 162° South 182 209 6,000 -590 Level Salt Lake Center
Fri 10:07:37 AM 40.8703 -112.0067 169° South 158 182 5,400 -900 Descending Salt Lake Center
Fri 10:07:56 AM 40.8567 -112.0047 174° South 147 169 5,100 -774 Descending Salt Lake Center
Fri 10:08:39 AM 40.8306 -112.0014 174° South 145 167 4,600 -716 Descending Salt Lake Center
Fri 10:09:03 AM 40.8153 -112.0019 182° South 139 160 4,300 -492 Descending Salt Lake Center
Fri 10:09:40 AM 40.7950 -111.9975 171° South 133 153 4,100 -324 Descending Salt Lake Center
Fri 10:11:00 AM 40.7884 -111.9778 159° South  Level Estimated

Login

Don't have an account? Register now (free) for customized features, flight alerts, and more!